sensor_id;sensor_type;location;lat;lon;timestamp;noise_LAeq;noise_LA_min;noise_LA_max;noise_LA01;noise_LA95
76261;Laerm;65076;52.362;6.588;2023-04-06T00:02:14;36.82;33.32;46.88;;
76261;Laerm;65076;52.362;6.588;2023-04-06T00:04:42;36.23;33.10;40.33;;
76261;Laerm;65076;52.362;6.588;2023-04-06T00:07:10;36.59;32.97;42.18;;
76261;Laerm;65076;52.362;6.588;2023-04-06T00:09:38;36.37;32.51;44.54;;
76261;Laerm;65076;52.362;6.588;2023-04-06T00:12:06;37.18;33.04;41.49;;
76261;Laerm;65076;52.362;6.588;2023-04-06T00:14:34;36.25;32.94;42.18;;
76261;Laerm;65076;52.362;6.588;2023-04-06T00:17:03;36.03;32.81;47.38;;
76261;Laerm;65076;52.362;6.588;2023-04-06T00:19:31;36.28;32.38;51.92;;
76261;Laerm;65076;52.362;6.588;2023-04-06T00:21:59;35.43;32.60;40.15;;
76261;Laerm;65076;52.362;6.588;2023-04-06T00:24:28;63.47;32.62;80.69;;
76261;Laerm;65076;52.362;6.588;2023-04-06T00:26:56;36.81;32.72;44.13;;
76261;Laerm;65076;52.362;6.588;2023-04-06T00:29:24;67.41;33.31;79.29;;
76261;Laerm;65076;52.362;6.588;2023-04-06T00:31:52;39.60;33.49;48.89;;
76261;Laerm;65076;52.362;6.588;2023-04-06T00:34:22;35.87;32.34;39.84;;
76261;Laerm;65076;52.362;6.588;2023-04-06T00:36:50;36.00;33.12;39.38;;
76261;Laerm;65076;52.362;6.588;2023-04-06T00:39:17;39.19;33.35;49.96;;
76261;Laerm;65076;52.362;6.588;2023-04-06T00:41:51;36.50;32.92;41.41;;
76261;Laerm;65076;52.362;6.588;2023-04-06T00:44:20;40.93;33.29;54.17;;
76261;Laerm;65076;52.362;6.588;2023-04-06T00:46:48;39.02;32.88;55.49;;
76261;Laerm;65076;52.362;6.588;2023-04-06T00:49:16;39.90;33.28;56.68;;
76261;Laerm;65076;52.362;6.588;2023-04-06T00:51:45;37.06;32.74;46.09;;
76261;Laerm;65076;52.362;6.588;2023-04-06T00:54:13;36.50;33.25;41.91;;
76261;Laerm;65076;52.362;6.588;2023-04-06T00:56:42;42.77;32.48;58.02;;
76261;Laerm;65076;52.362;6.588;2023-04-06T00:59:11;36.58;31.86;50.96;;
76261;Laerm;65076;52.362;6.588;2023-04-06T01:01:39;56.53;33.47;76.53;;
76261;Laerm;65076;52.362;6.588;2023-04-06T01:04:07;65.96;33.38;77.09;;
76261;Laerm;65076;52.362;6.588;2023-04-06T01:06:35;37.10;33.13;43.25;;
76261;Laerm;65076;52.362;6.588;2023-04-06T01:09:05;36.90;32.93;44.58;;
76261;Laerm;65076;52.362;6.588;2023-04-06T01:11:33;36.50;32.80;41.77;;
76261;Laerm;65076;52.362;6.588;2023-04-06T01:14:01;36.59;33.07;40.29;;
76261;Laerm;65076;52.362;6.588;2023-04-06T01:16:29;37.44;33.47;43.05;;
76261;Laerm;65076;52.362;6.588;2023-04-06T01:18:58;36.92;33.03;42.93;;
76261;Laerm;65076;52.362;6.588;2023-04-06T01:21:25;36.58;32.94;45.23;;
76261;Laerm;65076;52.362;6.588;2023-04-06T01:23:55;36.89;32.97;42.23;;
76261;Laerm;65076;52.362;6.588;2023-04-06T01:26:24;36.51;32.80;40.30;;
76261;Laerm;65076;52.362;6.588;2023-04-06T01:28:52;36.74;33.39;42.70;;
76261;Laerm;65076;52.362;6.588;2023-04-06T01:31:21;36.80;33.34;43.10;;
76261;Laerm;65076;52.362;6.588;2023-04-06T01:33:50;37.11;33.41;43.11;;
76261;Laerm;65076;52.362;6.588;2023-04-06T01:36:19;36.82;33.58;41.78;;
76261;Laerm;65076;52.362;6.588;2023-04-06T01:38:47;38.24;34.11;45.97;;
76261;Laerm;65076;52.362;6.588;2023-04-06T01:41:16;37.67;33.45;43.46;;
76261;Laerm;65076;52.362;6.588;2023-04-06T01:43:44;36.66;33.49;42.67;;
76261;Laerm;65076;52.362;6.588;2023-04-06T01:46:12;37.28;33.24;43.92;;
76261;Laerm;65076;52.362;6.588;2023-04-06T01:48:40;37.57;33.91;42.14;;
76261;Laerm;65076;52.362;6.588;2023-04-06T01:51:08;39.83;33.51;50.17;;
76261;Laerm;65076;52.362;6.588;2023-04-06T01:53:37;66.10;35.68;76.62;;
76261;Laerm;65076;52.362;6.588;2023-04-06T01:56:06;37.18;33.07;42.84;;
76261;Laerm;65076;52.362;6.588;2023-04-06T01:58:35;41.02;33.47;55.39;;
76261;Laerm;65076;52.362;6.588;2023-04-06T02:01:03;36.96;33.04;43.53;;
76261;Laerm;65076;52.362;6.588;2023-04-06T02:03:31;41.64;33.08;56.06;;
76261;Laerm;65076;52.362;6.588;2023-04-06T02:05:59;36.95;33.18;43.20;;
76261;Laerm;65076;52.362;6.588;2023-04-06T02:08:27;39.02;34.23;44.42;;
76261;Laerm;65076;52.362;6.588;2023-04-06T02:10:54;40.85;33.33;51.22;;
76261;Laerm;65076;52.362;6.588;2023-04-06T02:13:22;49.20;34.52;70.95;;
76261;Laerm;65076;52.362;6.588;2023-04-06T02:15:52;43.45;33.07;55.87;;
76261;Laerm;65076;52.362;6.588;2023-04-06T02:18:20;40.96;33.37;53.45;;
76261;Laerm;65076;52.362;6.588;2023-04-06T02:20:49;37.86;32.87;49.99;;
76261;Laerm;65076;52.362;6.588;2023-04-06T02:23:16;37.06;32.76;44.26;;
76261;Laerm;65076;52.362;6.588;2023-04-06T02:25:44;40.64;33.61;50.92;;
76261;Laerm;65076;52.362;6.588;2023-04-06T02:28:12;44.39;32.91;59.90;;
76261;Laerm;65076;52.362;6.588;2023-04-06T02:30:40;39.60;33.89;45.64;;
76261;Laerm;65076;52.362;6.588;2023-04-06T02:33:09;38.54;34.55;44.57;;
76261;Laerm;65076;52.362;6.588;2023-04-06T02:35:37;43.44;34.52;58.60;;
76261;Laerm;65076;52.362;6.588;2023-04-06T02:38:05;42.08;35.23;51.08;;
76261;Laerm;65076;52.362;6.588;2023-04-06T02:40:34;46.74;35.09;61.33;;
76261;Laerm;65076;52.362;6.588;2023-04-06T02:43:01;40.00;34.79;48.25;;
76261;Laerm;65076;52.362;6.588;2023-04-06T02:45:29;37.50;33.59;45.68;;
76261;Laerm;65076;52.362;6.588;2023-04-06T02:47:57;38.87;33.78;46.34;;
76261;Laerm;65076;52.362;6.588;2023-04-06T02:50:26;39.30;34.45;47.16;;
76261;Laerm;65076;52.362;6.588;2023-04-06T02:52:54;48.96;35.01;62.01;;
76261;Laerm;65076;52.362;6.588;2023-04-06T02:55:22;48.52;34.67;66.71;;
76261;Laerm;65076;52.362;6.588;2023-04-06T02:57:50;40.35;34.16;53.54;;
76261;Laerm;65076;52.362;6.588;2023-04-06T03:00:19;40.65;36.19;48.97;;
76261;Laerm;65076;52.362;6.588;2023-04-06T03:02:47;47.94;36.05;61.95;;
76261;Laerm;65076;52.362;6.588;2023-04-06T03:05:15;67.35;37.27;79.69;;
76261;Laerm;65076;52.362;6.588;2023-04-06T03:07:45;44.73;35.33;62.00;;
76261;Laerm;65076;52.362;6.588;2023-04-06T03:10:13;59.63;35.31;76.29;;
76261;Laerm;65076;52.362;6.588;2023-04-06T03:12:43;47.44;36.68;64.37;;
76261;Laerm;65076;52.362;6.588;2023-04-06T03:15:11;45.62;36.82;64.08;;
76261;Laerm;65076;52.362;6.588;2023-04-06T03:17:39;46.59;36.33;59.92;;
76261;Laerm;65076;52.362;6.588;2023-04-06T03:20:08;42.92;37.24;51.41;;
76261;Laerm;65076;52.362;6.588;2023-04-06T03:22:36;48.40;38.66;63.78;;
76261;Laerm;65076;52.362;6.588;2023-04-06T03:25:07;44.26;37.08;54.80;;
76261;Laerm;65076;52.362;6.588;2023-04-06T03:27:35;44.28;37.64;57.28;;
76261;Laerm;65076;52.362;6.588;2023-04-06T03:30:03;51.73;38.34;70.22;;
76261;Laerm;65076;52.362;6.588;2023-04-06T03:32:31;53.08;36.81;71.43;;
76261;Laerm;65076;52.362;6.588;2023-04-06T03:34:59;52.56;37.01;71.64;;
76261;Laerm;65076;52.362;6.588;2023-04-06T03:37:27;58.93;40.33;76.34;;
76261;Laerm;65076;52.362;6.588;2023-04-06T03:39:55;54.35;38.99;70.13;;
76261;Laerm;65076;52.362;6.588;2023-04-06T03:42:24;58.83;39.19;75.42;;
76261;Laerm;65076;52.362;6.588;2023-04-06T03:44:53;51.17;39.02;68.32;;
76261;Laerm;65076;52.362;6.588;2023-04-06T03:47:21;48.95;40.69;62.84;;
76261;Laerm;65076;52.362;6.588;2023-04-06T03:49:49;56.17;38.64;74.36;;
76261;Laerm;65076;52.362;6.588;2023-04-06T03:52:17;58.02;39.16;73.87;;
76261;Laerm;65076;52.362;6.588;2023-04-06T03:54:45;54.81;37.75;73.49;;
76261;Laerm;65076;52.362;6.588;2023-04-06T03:57:13;54.52;38.56;71.35;;
76261;Laerm;65076;52.362;6.588;2023-04-06T03:59:42;58.47;39.95;72.90;;
76261;Laerm;65076;52.362;6.588;2023-04-06T04:02:10;55.54;39.54;74.02;;
76261;Laerm;65076;52.362;6.588;2023-04-06T04:04:38;56.94;38.55;75.36;;
76261;Laerm;65076;52.362;6.588;2023-04-06T04:07:06;57.17;38.72;74.32;;
76261;Laerm;65076;52.362;6.588;2023-04-06T04:09:34;64.69;40.87;80.31;;
76261;Laerm;65076;52.362;6.588;2023-04-06T04:12:03;53.89;39.26;66.17;;
76261;Laerm;65076;52.362;6.588;2023-04-06T04:14:30;57.36;39.32;69.81;;
76261;Laerm;65076;52.362;6.588;2023-04-06T04:17:00;55.17;40.76;69.04;;
76261;Laerm;65076;52.362;6.588;2023-04-06T04:19:27;56.05;39.88;68.67;;
76261;Laerm;65076;52.362;6.588;2023-04-06T04:21:55;57.38;40.58;70.90;;
76261;Laerm;65076;52.362;6.588;2023-04-06T04:24:23;57.37;40.68;70.35;;
76261;Laerm;65076;52.362;6.588;2023-04-06T04:26:51;56.78;42.43;71.55;;
76261;Laerm;65076;52.362;6.588;2023-04-06T04:29:19;58.80;42.52;71.39;;
76261;Laerm;65076;52.362;6.588;2023-04-06T04:31:49;57.00;41.81;68.24;;
76261;Laerm;65076;52.362;6.588;2023-04-06T04:34:18;57.81;41.49;69.55;;
76261;Laerm;65076;52.362;6.588;2023-04-06T04:36:47;58.08;44.28;70.79;;
76261;Laerm;65076;52.362;6.588;2023-04-06T04:39:15;63.87;44.58;77.28;;
76261;Laerm;65076;52.362;6.588;2023-04-06T04:41:43;63.47;43.40;75.98;;
76261;Laerm;65076;52.362;6.588;2023-04-06T04:44:10;58.42;43.39;70.21;;
76261;Laerm;65076;52.362;6.588;2023-04-06T04:46:39;55.38;43.27;66.31;;
76261;Laerm;65076;52.362;6.588;2023-04-06T04:49:08;57.15;44.49;68.91;;
76261;Laerm;65076;52.362;6.588;2023-04-06T04:51:37;54.61;43.13;68.65;;
76261;Laerm;65076;52.362;6.588;2023-04-06T04:54:06;57.32;44.64;70.84;;
76261;Laerm;65076;52.362;6.588;2023-04-06T04:56:34;60.36;44.31;77.07;;
76261;Laerm;65076;52.362;6.588;2023-04-06T04:59:02;56.60;44.10;71.47;;
76261;Laerm;65076;52.362;6.588;2023-04-06T05:01:30;57.66;44.07;70.18;;
76261;Laerm;65076;52.362;6.588;2023-04-06T05:04:13;56.90;41.87;68.53;;
76261;Laerm;65076;52.362;6.588;2023-04-06T05:06:42;57.29;44.34;70.61;;
76261;Laerm;65076;52.362;6.588;2023-04-06T05:09:09;61.11;43.48;77.13;;
76261;Laerm;65076;52.362;6.588;2023-04-06T05:11:37;61.15;43.91;77.16;;
76261;Laerm;65076;52.362;6.588;2023-04-06T05:14:05;55.64;44.90;66.72;;
76261;Laerm;65076;52.362;6.588;2023-04-06T05:16:34;56.03;44.58;66.03;;
76261;Laerm;65076;52.362;6.588;2023-04-06T05:19:02;59.75;45.80;74.42;;
76261;Laerm;65076;52.362;6.588;2023-04-06T05:21:30;55.92;44.35;68.87;;
76261;Laerm;65076;52.362;6.588;2023-04-06T05:23:59;58.61;45.79;69.89;;
76261;Laerm;65076;52.362;6.588;2023-04-06T05:26:29;57.57;44.46;67.77;;
76261;Laerm;65076;52.362;6.588;2023-04-06T05:28:57;54.82;46.62;72.99;;
76261;Laerm;65076;52.362;6.588;2023-04-06T05:31:25;58.47;49.37;68.27;;
76261;Laerm;65076;52.362;6.588;2023-04-06T05:33:53;57.98;44.26;72.80;;
76261;Laerm;65076;52.362;6.588;2023-04-06T05:36:21;56.03;45.67;68.21;;
76261;Laerm;65076;52.362;6.588;2023-04-06T05:38:49;62.40;47.58;78.57;;
76261;Laerm;65076;52.362;6.588;2023-04-06T05:41:20;60.68;44.34;76.38;;
76261;Laerm;65076;52.362;6.588;2023-04-06T05:43:48;57.05;46.43;76.58;;
76261;Laerm;65076;52.362;6.588;2023-04-06T05:46:16;58.68;48.37;67.48;;
76261;Laerm;65076;52.362;6.588;2023-04-06T05:48:44;56.86;46.51;70.60;;
76261;Laerm;65076;52.362;6.588;2023-04-06T05:51:12;60.74;46.84;74.64;;
76261;Laerm;65076;52.362;6.588;2023-04-06T05:53:40;57.94;47.11;69.69;;
76261;Laerm;65076;52.362;6.588;2023-04-06T05:56:08;61.55;45.87;77.17;;
76261;Laerm;65076;52.362;6.588;2023-04-06T05:58:37;57.15;45.04;71.54;;
76261;Laerm;65076;52.362;6.588;2023-04-06T06:01:05;56.20;45.15;69.10;;
76261;Laerm;65076;52.362;6.588;2023-04-06T06:03:33;56.73;45.22;67.37;;
76261;Laerm;65076;52.362;6.588;2023-04-06T06:06:02;55.46;44.71;63.89;;
76261;Laerm;65076;52.362;6.588;2023-04-06T06:08:31;57.32;45.62;67.47;;
76261;Laerm;65076;52.362;6.588;2023-04-06T06:10:59;60.71;47.13;78.26;;
76261;Laerm;65076;52.362;6.588;2023-04-06T06:13:27;56.58;48.49;65.24;;
76261;Laerm;65076;52.362;6.588;2023-04-06T06:15:57;58.59;46.14;72.37;;
76261;Laerm;65076;52.362;6.588;2023-04-06T06:18:25;56.27;44.88;68.60;;
76261;Laerm;65076;52.362;6.588;2023-04-06T06:20:52;61.01;46.15;75.51;;
76261;Laerm;65076;52.362;6.588;2023-04-06T06:23:20;59.51;45.98;83.56;;
76261;Laerm;65076;52.362;6.588;2023-04-06T06:25:48;56.98;47.03;67.67;;
76261;Laerm;65076;52.362;6.588;2023-04-06T06:28:16;55.93;46.58;68.28;;
76261;Laerm;65076;52.362;6.588;2023-04-06T06:30:44;59.38;49.41;73.02;;
76261;Laerm;65076;52.362;6.588;2023-04-06T06:33:13;57.27;46.02;69.52;;
76261;Laerm;65076;52.362;6.588;2023-04-06T06:35:41;58.42;48.76;70.02;;
76261;Laerm;65076;52.362;6.588;2023-04-06T06:38:09;60.76;47.98;76.54;;
76261;Laerm;65076;52.362;6.588;2023-04-06T06:40:37;61.85;47.38;77.05;;
76261;Laerm;65076;52.362;6.588;2023-04-06T06:43:05;58.96;47.46;71.77;;
76261;Laerm;65076;52.362;6.588;2023-04-06T06:45:34;53.84;45.03;71.71;;
76261;Laerm;65076;52.362;6.588;2023-04-06T06:48:02;54.87;43.50;67.68;;
76261;Laerm;65076;52.362;6.588;2023-04-06T06:50:31;61.17;45.06;75.33;;
76261;Laerm;65076;52.362;6.588;2023-04-06T06:52:59;56.99;46.83;68.03;;
76261;Laerm;65076;52.362;6.588;2023-04-06T06:55:27;60.01;48.23;75.58;;
76261;Laerm;65076;52.362;6.588;2023-04-06T06:57:55;56.26;46.29;69.02;;
76261;Laerm;65076;52.362;6.588;2023-04-06T07:00:23;57.39;46.81;82.47;;
76261;Laerm;65076;52.362;6.588;2023-04-06T07:02:52;54.85;44.64;68.39;;
76261;Laerm;65076;52.362;6.588;2023-04-06T07:05:20;54.56;44.06;67.14;;
76261;Laerm;65076;52.362;6.588;2023-04-06T07:07:56;61.88;48.61;78.52;;
76261;Laerm;65076;52.362;6.588;2023-04-06T07:10:24;58.01;46.71;76.34;;
76261;Laerm;65076;52.362;6.588;2023-04-06T07:12:52;59.21;41.83;76.12;;
76261;Laerm;65076;52.362;6.588;2023-04-06T07:15:20;54.17;41.93;67.24;;
76261;Laerm;65076;52.362;6.588;2023-04-06T07:17:48;57.89;43.65;69.98;;
76261;Laerm;65076;52.362;6.588;2023-04-06T07:20:17;58.48;46.90;70.93;;
76261;Laerm;65076;52.362;6.588;2023-04-06T07:22:45;65.05;44.43;77.32;;
76261;Laerm;65076;52.362;6.588;2023-04-06T07:25:14;58.71;42.11;70.10;;
76261;Laerm;65076;52.362;6.588;2023-04-06T07:27:42;55.05;46.71;74.62;;
76261;Laerm;65076;52.362;6.588;2023-04-06T07:30:11;56.56;47.91;74.00;;
76261;Laerm;65076;52.362;6.588;2023-04-06T07:32:39;56.32;42.70;71.99;;
76261;Laerm;65076;52.362;6.588;2023-04-06T07:35:07;55.39;44.16;68.90;;
76261;Laerm;65076;52.362;6.588;2023-04-06T07:37:35;58.76;43.74;76.53;;
76261;Laerm;65076;52.362;6.588;2023-04-06T07:40:04;59.56;43.01;75.72;;
76261;Laerm;65076;52.362;6.588;2023-04-06T07:42:33;51.68;40.85;64.75;;
76261;Laerm;65076;52.362;6.588;2023-04-06T07:45:01;59.06;41.68;79.26;;
76261;Laerm;65076;52.362;6.588;2023-04-06T07:47:30;67.04;43.21;83.47;;
76261;Laerm;65076;52.362;6.588;2023-04-06T07:49:58;51.95;40.47;68.76;;
76261;Laerm;65076;52.362;6.588;2023-04-06T07:52:26;60.96;44.58;78.74;;
76261;Laerm;65076;52.362;6.588;2023-04-06T07:54:54;56.57;42.84;66.93;;
76261;Laerm;65076;52.362;6.588;2023-04-06T07:57:22;60.68;44.03;79.22;;
76261;Laerm;65076;52.362;6.588;2023-04-06T07:59:51;53.93;44.87;71.07;;
76261;Laerm;65076;52.362;6.588;2023-04-06T08:02:19;56.80;46.12;67.19;;
76261;Laerm;65076;52.362;6.588;2023-04-06T08:04:47;54.35;39.70;63.98;;
76261;Laerm;65076;52.362;6.588;2023-04-06T08:07:16;61.21;43.60;77.64;;
76261;Laerm;65076;52.362;6.588;2023-04-06T08:09:44;61.96;44.86;76.75;;
76261;Laerm;65076;52.362;6.588;2023-04-06T08:12:12;60.11;48.93;74.12;;
76261;Laerm;65076;52.362;6.588;2023-04-06T08:14:40;67.90;48.58;82.67;;
76261;Laerm;65076;52.362;6.588;2023-04-06T08:17:10;56.33;49.06;66.24;;
76261;Laerm;65076;52.362;6.588;2023-04-06T08:19:38;68.44;47.02;80.11;;
76261;Laerm;65076;52.362;6.588;2023-04-06T08:22:06;60.57;49.85;75.13;;
76261;Laerm;65076;52.362;6.588;2023-04-06T08:24:34;56.65;48.20;69.53;;
76261;Laerm;65076;52.362;6.588;2023-04-06T08:27:03;55.90;41.80;70.88;;
76261;Laerm;65076;52.362;6.588;2023-04-06T08:29:31;54.95;42.60;70.06;;
76261;Laerm;65076;52.362;6.588;2023-04-06T08:32:00;56.78;46.46;67.20;;
76261;Laerm;65076;52.362;6.588;2023-04-06T08:34:34;55.88;42.10;67.29;;
76261;Laerm;65076;52.362;6.588;2023-04-06T08:37:01;58.42;44.11;75.97;;
76261;Laerm;65076;52.362;6.588;2023-04-06T08:39:30;61.91;42.49;78.43;;
76261;Laerm;65076;52.362;6.588;2023-04-06T08:42:01;62.66;44.38;76.78;;
76261;Laerm;65076;52.362;6.588;2023-04-06T08:44:31;58.82;50.59;75.43;;
76261;Laerm;65076;52.362;6.588;2023-04-06T08:46:59;53.76;43.68;63.33;;
76261;Laerm;65076;52.362;6.588;2023-04-06T08:49:28;61.59;43.29;78.23;;
76261;Laerm;65076;52.362;6.588;2023-04-06T08:51:59;53.78;42.90;66.10;;
76261;Laerm;65076;52.362;6.588;2023-04-06T08:54:27;59.05;44.20;77.13;;
76261;Laerm;65076;52.362;6.588;2023-04-06T08:56:55;56.94;46.17;71.85;;
76261;Laerm;65076;52.362;6.588;2023-04-06T08:59:24;56.52;48.90;65.64;;
76261;Laerm;65076;52.362;6.588;2023-04-06T09:01:55;59.48;49.88;70.93;;
76261;Laerm;65076;52.362;6.588;2023-04-06T09:04:23;54.91;43.84;75.19;;
76261;Laerm;65076;52.362;6.588;2023-04-06T09:06:51;55.26;44.08;67.40;;
76261;Laerm;65076;52.362;6.588;2023-04-06T09:09:20;58.53;42.51;76.60;;
76261;Laerm;65076;52.362;6.588;2023-04-06T09:11:51;56.17;43.81;66.00;;
76261;Laerm;65076;52.362;6.588;2023-04-06T09:14:34;62.75;52.09;75.81;;
76261;Laerm;65076;52.362;6.588;2023-04-06T09:17:03;55.83;44.65;71.13;;
76261;Laerm;65076;52.362;6.588;2023-04-06T09:19:32;57.72;43.11;73.51;;
76261;Laerm;65076;52.362;6.588;2023-04-06T09:22:03;54.32;42.98;66.85;;
76261;Laerm;65076;52.362;6.588;2023-04-06T09:24:43;62.45;42.17;77.02;;
76261;Laerm;65076;52.362;6.588;2023-04-06T09:27:12;57.02;44.61;69.01;;
76261;Laerm;65076;52.362;6.588;2023-04-06T09:29:41;61.53;52.35;78.12;;
76261;Laerm;65076;52.362;6.588;2023-04-06T09:32:10;57.02;43.46;65.95;;
76261;Laerm;65076;52.362;6.588;2023-04-06T09:34:38;59.59;45.53;77.92;;
76261;Laerm;65076;52.362;6.588;2023-04-06T09:37:13;58.92;47.50;75.63;;
76261;Laerm;65076;52.362;6.588;2023-04-06T09:39:43;59.00;41.98;76.10;;
76261;Laerm;65076;52.362;6.588;2023-04-06T09:42:23;59.81;51.17;75.84;;
76261;Laerm;65076;52.362;6.588;2023-04-06T09:44:51;71.61;48.11;82.42;;
76261;Laerm;65076;52.362;6.588;2023-04-06T09:47:20;56.31;44.56;69.18;;
76261;Laerm;65076;52.362;6.588;2023-04-06T09:49:56;62.26;42.79;76.39;;
76261;Laerm;65076;52.362;6.588;2023-04-06T09:52:27;60.92;52.33;74.75;;
76261;Laerm;65076;52.362;6.588;2023-04-06T09:55:03;61.13;45.97;74.44;;
76261;Laerm;65076;52.362;6.588;2023-04-06T09:57:35;54.78;44.63;70.95;;
76261;Laerm;65076;52.362;6.588;2023-04-06T10:00:07;55.81;48.22;70.39;;
76261;Laerm;65076;52.362;6.588;2023-04-06T10:02:45;59.02;44.86;70.64;;
76261;Laerm;65076;52.362;6.588;2023-04-06T10:05:22;58.11;49.60;69.33;;
76261;Laerm;65076;52.362;6.588;2023-04-06T10:07:56;58.01;48.77;74.69;;
76261;Laerm;65076;52.362;6.588;2023-04-06T10:10:28;62.55;48.08;78.18;;
76261;Laerm;65076;52.362;6.588;2023-04-06T10:12:58;56.31;45.77;70.44;;
76261;Laerm;65076;52.362;6.588;2023-04-06T10:15:28;56.06;47.35;67.34;;
76261;Laerm;65076;52.362;6.588;2023-04-06T10:17:58;56.96;49.13;67.48;;
76261;Laerm;65076;52.362;6.588;2023-04-06T10:20:34;59.67;49.78;75.34;;
76261;Laerm;65076;52.362;6.588;2023-04-06T10:23:09;54.99;43.17;65.94;;
76261;Laerm;65076;52.362;6.588;2023-04-06T10:25:54;56.75;48.83;68.13;;
76261;Laerm;65076;52.362;6.588;2023-04-06T10:28:24;58.89;46.24;67.32;;
76261;Laerm;65076;52.362;6.588;2023-04-06T10:30:57;61.87;51.54;71.20;;
76261;Laerm;65076;52.362;6.588;2023-04-06T10:33:27;59.51;41.75;69.45;;
76261;Laerm;65076;52.362;6.588;2023-04-06T10:35:55;52.80;40.55;61.10;;
76261;Laerm;65076;52.362;6.588;2023-04-06T10:38:33;61.72;43.60;77.13;;
76261;Laerm;65076;52.362;6.588;2023-04-06T10:41:09;58.99;44.13;76.20;;
76261;Laerm;65076;52.362;6.588;2023-04-06T10:43:39;53.63;45.63;66.84;;
76261;Laerm;65076;52.362;6.588;2023-04-06T10:46:08;65.68;44.63;80.77;;
76261;Laerm;65076;52.362;6.588;2023-04-06T10:48:38;53.74;43.89;67.23;;
76261;Laerm;65076;52.362;6.588;2023-04-06T10:51:10;67.49;44.63;81.16;;
76261;Laerm;65076;52.362;6.588;2023-04-06T10:53:42;63.05;44.73;79.52;;
76261;Laerm;65076;52.362;6.588;2023-04-06T10:56:15;55.89;42.58;67.18;;
76261;Laerm;65076;52.362;6.588;2023-04-06T10:58:48;56.23;43.68;71.28;;
76261;Laerm;65076;52.362;6.588;2023-04-06T11:01:19;56.76;45.60;68.18;;
76261;Laerm;65076;52.362;6.588;2023-04-06T11:03:50;54.36;42.18;64.70;;
76261;Laerm;65076;52.362;6.588;2023-04-06T11:06:19;57.24;44.99;75.89;;
76261;Laerm;65076;52.362;6.588;2023-04-06T11:08:47;60.92;47.53;68.82;;
76261;Laerm;65076;52.362;6.588;2023-04-06T11:11:19;65.79;51.86;78.92;;
76261;Laerm;65076;52.362;6.588;2023-04-06T11:13:50;62.00;50.40;71.70;;
76261;Laerm;65076;52.362;6.588;2023-04-06T11:16:21;59.57;48.65;68.16;;
76261;Laerm;65076;52.362;6.588;2023-04-06T11:18:52;56.52;49.51;69.85;;
76261;Laerm;65076;52.362;6.588;2023-04-06T11:21:33;65.48;49.19;77.49;;
76261;Laerm;65076;52.362;6.588;2023-04-06T11:24:10;64.00;53.13;69.28;;
76261;Laerm;65076;52.362;6.588;2023-04-06T11:26:42;64.48;58.48;71.51;;
76261;Laerm;65076;52.362;6.588;2023-04-06T11:29:12;61.14;48.68;73.35;;
76261;Laerm;65076;52.362;6.588;2023-04-06T11:31:42;59.76;49.52;70.40;;
76261;Laerm;65076;52.362;6.588;2023-04-06T11:34:12;64.72;56.60;74.60;;
76261;Laerm;65076;52.362;6.588;2023-04-06T11:36:42;63.63;50.48;74.46;;
76261;Laerm;65076;52.362;6.588;2023-04-06T11:39:11;59.02;48.57;75.48;;
76261;Laerm;65076;52.362;6.588;2023-04-06T11:41:40;59.73;49.47;75.71;;
76261;Laerm;65076;52.362;6.588;2023-04-06T11:44:08;68.94;49.01;83.24;;
76261;Laerm;65076;52.362;6.588;2023-04-06T11:46:36;57.70;50.20;67.40;;
76261;Laerm;65076;52.362;6.588;2023-04-06T11:49:04;59.66;48.31;68.48;;
76261;Laerm;65076;52.362;6.588;2023-04-06T11:51:36;63.20;53.03;74.45;;
76261;Laerm;65076;52.362;6.588;2023-04-06T11:54:04;58.96;48.09;70.35;;
76261;Laerm;65076;52.362;6.588;2023-04-06T11:56:32;64.28;48.76;83.97;;
76261;Laerm;65076;52.362;6.588;2023-04-06T11:59:02;57.00;49.65;66.69;;
76261;Laerm;65076;52.362;6.588;2023-04-06T12:01:30;63.12;52.46;77.55;;
76261;Laerm;65076;52.362;6.588;2023-04-06T12:04:04;57.09;47.96;66.56;;
76261;Laerm;65076;52.362;6.588;2023-04-06T12:06:33;56.35;49.13;65.11;;
76261;Laerm;65076;52.362;6.588;2023-04-06T12:09:01;63.19;53.24;78.04;;
76261;Laerm;65076;52.362;6.588;2023-04-06T12:11:29;66.65;52.95;88.48;;
76261;Laerm;65076;52.362;6.588;2023-04-06T12:13:57;55.11;47.41;63.47;;
76261;Laerm;65076;52.362;6.588;2023-04-06T12:16:27;67.25;46.13;82.31;;
76261;Laerm;65076;52.362;6.588;2023-04-06T12:18:55;60.76;43.80;75.83;;
76261;Laerm;65076;52.362;6.588;2023-04-06T12:21:23;60.94;49.71;79.77;;
76261;Laerm;65076;52.362;6.588;2023-04-06T12:23:51;57.28;45.56;68.14;;
76261;Laerm;65076;52.362;6.588;2023-04-06T12:26:19;61.34;46.39;77.63;;
76261;Laerm;65076;52.362;6.588;2023-04-06T12:28:47;55.87;45.02;68.33;;
76261;Laerm;65076;52.362;6.588;2023-04-06T12:31:15;58.71;47.64;70.14;;
76261;Laerm;65076;52.362;6.588;2023-04-06T12:33:47;59.48;51.91;68.12;;
76261;Laerm;65076;52.362;6.588;2023-04-06T12:36:17;58.79;46.97;71.53;;
76261;Laerm;65076;52.362;6.588;2023-04-06T12:38:47;55.01;44.37;67.05;;
76261;Laerm;65076;52.362;6.588;2023-04-06T12:41:16;62.07;43.35;77.10;;
76261;Laerm;65076;52.362;6.588;2023-04-06T12:43:46;61.46;43.26;75.98;;
76261;Laerm;65076;52.362;6.588;2023-04-06T12:46:14;69.11;45.94;82.42;;
76261;Laerm;65076;52.362;6.588;2023-04-06T12:48:42;54.60;47.08;65.38;;
76261;Laerm;65076;52.362;6.588;2023-04-06T12:51:11;60.37;43.60;77.66;;
76261;Laerm;65076;52.362;6.588;2023-04-06T12:53:41;55.99;44.88;73.52;;
76261;Laerm;65076;52.362;6.588;2023-04-06T12:56:13;58.57;43.51;73.62;;
76261;Laerm;65076;52.362;6.588;2023-04-06T12:58:42;56.29;44.64;69.10;;
76261;Laerm;65076;52.362;6.588;2023-04-06T13:01:10;61.48;47.34;75.86;;
76261;Laerm;65076;52.362;6.588;2023-04-06T13:03:40;55.78;43.54;66.79;;
76261;Laerm;65076;52.362;6.588;2023-04-06T13:06:10;58.93;46.52;77.59;;
76261;Laerm;65076;52.362;6.588;2023-04-06T13:08:39;56.03;45.40;67.86;;
76261;Laerm;65076;52.362;6.588;2023-04-06T13:11:08;62.38;51.53;76.00;;
76261;Laerm;65076;52.362;6.588;2023-04-06T13:13:36;59.47;51.11;67.25;;
76261;Laerm;65076;52.362;6.588;2023-04-06T13:16:07;57.17;44.91;67.35;;
76261;Laerm;65076;52.362;6.588;2023-04-06T13:18:36;59.20;46.57;75.90;;
76261;Laerm;65076;52.362;6.588;2023-04-06T13:21:05;62.81;44.83;76.45;;
76261;Laerm;65076;52.362;6.588;2023-04-06T13:23:36;61.76;48.07;76.64;;
76261;Laerm;65076;52.362;6.588;2023-04-06T13:26:06;58.61;44.61;75.89;;
76261;Laerm;65076;52.362;6.588;2023-04-06T13:28:36;53.98;43.65;66.20;;
76261;Laerm;65076;52.362;6.588;2023-04-06T13:31:05;57.01;46.60;70.21;;
76261;Laerm;65076;52.362;6.588;2023-04-06T13:33:35;58.88;47.05;75.89;;
76261;Laerm;65076;52.362;6.588;2023-04-06T13:36:04;59.50;51.06;74.93;;
76261;Laerm;65076;52.362;6.588;2023-04-06T13:38:35;60.68;51.81;75.30;;
76261;Laerm;65076;52.362;6.588;2023-04-06T13:41:05;60.30;46.26;75.62;;
76261;Laerm;65076;52.362;6.588;2023-04-06T13:43:33;60.25;51.96;76.30;;
76261;Laerm;65076;52.362;6.588;2023-04-06T13:46:01;69.52;50.80;82.20;;
76261;Laerm;65076;52.362;6.588;2023-04-06T13:48:29;58.49;46.59;65.68;;
76261;Laerm;65076;52.362;6.588;2023-04-06T13:50:57;62.77;43.60;77.11;;
76261;Laerm;65076;52.362;6.588;2023-04-06T13:53:26;56.76;43.45;76.14;;
76261;Laerm;65076;52.362;6.588;2023-04-06T13:55:55;59.02;42.65;75.70;;